QFA14D EGGD-EGJJ
Flight info
| Callsign | QFA14D |
|---|---|
| Flight time | 0h 40m |
| Altitude | 9000 |
| Route | EXMOR N40 KLAKI L149 BIGNO |
| Aircraft | DH8D/M-SDE2E3FGRY/H |
Departure
| Time | 2026-05-04 12:09 |
|---|---|
| Airport | Bristol Airport (EGGD) |
Arrival
| Time | 2026-05-04 12:49 |
|---|---|
| Airport | Jersey Airport (EGJJ) |
| Time | Latitude | Longitude | Altitude | Speed | Heading |
|---|---|---|---|---|---|
| 2026-05-04 11:38 | 51.38549 | -2.71080 | 601 ft | 0 kts | 356° |
| 2026-05-04 12:01 | 51.38548 | -2.71080 | 601 ft | 1 kts | 356° |
| 2026-05-04 12:02 | 51.38469 | -2.71054 | 601 ft | 2 kts | 306° |
| 2026-05-04 12:03 | 51.38462 | -2.71032 | 601 ft | 2 kts | 281° |
| 2026-05-04 12:03 | 51.38461 | -2.71014 | 601 ft | 1 kts | 265° |
| 2026-05-04 12:03 | 51.38462 | -2.71013 | 601 ft | 0 kts | 265° |
| 2026-05-04 12:04 | 51.38457 | -2.71093 | 601 ft | 13 kts | 265° |
| 2026-05-04 12:05 | 51.38450 | -2.71313 | 601 ft | 25 kts | 269° |
| 2026-05-04 12:05 | 51.38443 | -2.71637 | 601 ft | 33 kts | 267° |
| 2026-05-04 12:05 | 51.38434 | -2.71999 | 601 ft | 31 kts | 267° |
| 2026-05-04 12:05 | 51.38419 | -2.72384 | 601 ft | 34 kts | 265° |
| 2026-05-04 12:06 | 51.38405 | -2.72721 | 601 ft | 26 kts | 266° |
| 2026-05-04 12:06 | 51.38395 | -2.72963 | 601 ft | 17 kts | 266° |
| 2026-05-04 12:06 | 51.38388 | -2.73108 | 601 ft | 8 kts | 265° |
| 2026-05-04 12:06 | 51.38383 | -2.73199 | 601 ft | 11 kts | 263° |
| 2026-05-04 12:07 | 51.38351 | -2.73313 | 601 ft | 7 kts | 216° |
| 2026-05-04 12:07 | 51.38312 | -2.73333 | 601 ft | 10 kts | 182° |
| 2026-05-04 12:07 | 51.38214 | -2.73151 | 601 ft | 41 kts | 79° |
| 2026-05-04 12:07 | 51.38252 | -2.72220 | 601 ft | 121 kts | 84° |
| 2026-05-04 12:08 | 51.38302 | -2.70675 | 888 ft | 154 kts | 86° |
| 2026-05-04 12:08 | 51.38385 | -2.68808 | 989 ft | 180 kts | 84° |
| 2026-05-04 12:08 | 51.38495 | -2.66715 | 1053 ft | 193 kts | 84° |
| 2026-05-04 12:08 | 51.38575 | -2.64577 | 1196 ft | 193 kts | 86° |
| 2026-05-04 12:09 | 51.38627 | -2.62402 | 1342 ft | 193 kts | 86° |
| 2026-05-04 12:09 | 51.38685 | -2.60266 | 1497 ft | 194 kts | 85° |
| 2026-05-04 12:09 | 51.38752 | -2.58119 | 1645 ft | 194 kts | 85° |
| 2026-05-04 12:09 | 51.38904 | -2.55972 | 1793 ft | 192 kts | 80° |
| 2026-05-04 12:10 | 51.38761 | -2.53916 | 1911 ft | 185 kts | 114° |
| 2026-05-04 12:10 | 51.37877 | -2.52514 | 2039 ft | 180 kts | 148° |
| 2026-05-04 12:10 | 51.36777 | -2.51627 | 2174 ft | 172 kts | 149° |
| 2026-05-04 12:10 | 51.35741 | -2.50785 | 2299 ft | 165 kts | 149° |
| 2026-05-04 12:11 | 51.34740 | -2.49986 | 2412 ft | 157 kts | 149° |
| 2026-05-04 12:11 | 51.33783 | -2.49229 | 2532 ft | 151 kts | 149° |
| 2026-05-04 12:11 | 51.32818 | -2.48473 | 2708 ft | 158 kts | 149° |
| 2026-05-04 12:11 | 51.31812 | -2.47677 | 2882 ft | 166 kts | 149° |
| 2026-05-04 12:12 | 51.30764 | -2.46839 | 3059 ft | 175 kts | 149° |
| 2026-05-04 12:12 | 51.29629 | -2.45922 | 3241 ft | 185 kts | 149° |
| 2026-05-04 12:12 | 51.28459 | -2.44967 | 3410 ft | 196 kts | 149° |
| 2026-05-04 12:12 | 51.27170 | -2.44119 | 3568 ft | 208 kts | 167° |
| 2026-05-04 12:13 | 51.25681 | -2.43900 | 3748 ft | 217 kts | 173° |
| 2026-05-04 12:14 | 51.15488 | -2.48211 | 4786 ft | 221 kts | 211° |
| 2026-05-04 12:15 | 51.14198 | -2.49481 | 4924 ft | 219 kts | 209° |
| 2026-05-04 12:15 | 51.12879 | -2.50730 | 5075 ft | 220 kts | 208° |
| 2026-05-04 12:15 | 51.11552 | -2.51942 | 5224 ft | 222 kts | 208° |
| 2026-05-04 12:15 | 51.10211 | -2.53142 | 5362 ft | 222 kts | 207° |
| 2026-05-04 12:16 | 51.08840 | -2.54343 | 5516 ft | 223 kts | 207° |
| 2026-05-04 12:16 | 51.07478 | -2.55518 | 5665 ft | 224 kts | 207° |
| 2026-05-04 12:16 | 51.06102 | -2.56695 | 5813 ft | 225 kts | 206° |
| 2026-05-04 12:16 | 51.04721 | -2.57866 | 5961 ft | 226 kts | 206° |
| 2026-05-04 12:17 | 51.03326 | -2.59042 | 6107 ft | 226 kts | 206° |
| 2026-05-04 12:17 | 51.01946 | -2.60201 | 6251 ft | 226 kts | 206° |
| 2026-05-04 12:17 | 51.00550 | -2.61369 | 6401 ft | 227 kts | 206° |
| 2026-05-04 12:17 | 50.99146 | -2.62540 | 6551 ft | 227 kts | 206° |
| 2026-05-04 12:18 | 50.97752 | -2.63701 | 6720 ft | 227 kts | 206° |
| 2026-05-04 12:18 | 50.96364 | -2.64854 | 6954 ft | 223 kts | 206° |
| 2026-05-04 12:18 | 50.95000 | -2.65986 | 7196 ft | 219 kts | 206° |
| 2026-05-04 12:18 | 50.93656 | -2.67100 | 7437 ft | 216 kts | 206° |
| 2026-05-04 12:19 | 50.92338 | -2.68190 | 7679 ft | 213 kts | 206° |
| 2026-05-04 12:19 | 50.91048 | -2.69257 | 7918 ft | 209 kts | 206° |
| 2026-05-04 12:19 | 50.89767 | -2.70315 | 8169 ft | 206 kts | 206° |
| 2026-05-04 12:19 | 50.88500 | -2.71362 | 8411 ft | 203 kts | 206° |
| 2026-05-04 12:20 | 50.87264 | -2.72382 | 8681 ft | 199 kts | 206° |
| 2026-05-04 12:20 | 50.86048 | -2.73386 | 8937 ft | 196 kts | 206° |
| 2026-05-04 12:20 | 50.84843 | -2.74378 | 9178 ft | 192 kts | 206° |
| 2026-05-04 12:20 | 50.83669 | -2.75346 | 9395 ft | 189 kts | 205° |
| 2026-05-04 12:21 | 50.82527 | -2.76285 | 9621 ft | 185 kts | 205° |
| 2026-05-04 12:21 | 50.81394 | -2.77217 | 9833 ft | 185 kts | 205° |
| 2026-05-04 12:21 | 50.80225 | -2.78176 | 9918 ft | 191 kts | 205° |
| 2026-05-04 12:21 | 50.79032 | -2.79155 | 9978 ft | 199 kts | 205° |
| 2026-05-04 12:22 | 50.77770 | -2.80191 | 9981 ft | 209 kts | 205° |
| 2026-05-04 12:22 | 50.76444 | -2.81277 | 9980 ft | 218 kts | 205° |
| 2026-05-04 12:22 | 50.75077 | -2.82397 | 9980 ft | 227 kts | 205° |
| 2026-05-04 12:22 | 50.73660 | -2.83556 | 9974 ft | 237 kts | 206° |
| 2026-05-04 12:23 | 50.72141 | -2.84801 | 9975 ft | 253 kts | 206° |
| 2026-05-04 12:23 | 50.70536 | -2.86116 | 9972 ft | 266 kts | 206° |
| 2026-05-04 12:23 | 50.68861 | -2.87487 | 9971 ft | 276 kts | 206° |
| 2026-05-04 12:23 | 50.67152 | -2.88883 | 9972 ft | 283 kts | 206° |
| 2026-05-04 12:24 | 50.65399 | -2.90314 | 9968 ft | 285 kts | 206° |
| 2026-05-04 12:24 | 50.63656 | -2.91733 | 9959 ft | 281 kts | 206° |
| 2026-05-04 12:24 | 50.61930 | -2.93137 | 9954 ft | 278 kts | 206° |
| 2026-05-04 12:24 | 50.60217 | -2.94531 | 9960 ft | 275 kts | 206° |
| 2026-05-04 12:25 | 50.58526 | -2.95905 | 9961 ft | 274 kts | 206° |
| 2026-05-04 12:25 | 50.56830 | -2.97284 | 9963 ft | 272 kts | 206° |
| 2026-05-04 12:25 | 50.55165 | -2.98635 | 9961 ft | 271 kts | 206° |
| 2026-05-04 12:25 | 50.53484 | -2.99999 | 9956 ft | 270 kts | 206° |
| 2026-05-04 12:26 | 50.51836 | -3.01334 | 9958 ft | 269 kts | 206° |
| 2026-05-04 12:26 | 50.50161 | -3.02691 | 9964 ft | 268 kts | 206° |
| 2026-05-04 12:26 | 50.48522 | -3.04017 | 9964 ft | 268 kts | 206° |
| 2026-05-04 12:26 | 50.46852 | -3.05368 | 9961 ft | 268 kts | 206° |
| 2026-05-04 12:27 | 50.45200 | -3.06702 | 9962 ft | 267 kts | 206° |
| 2026-05-04 12:27 | 50.43554 | -3.08031 | 9962 ft | 267 kts | 206° |
| 2026-05-04 12:27 | 50.41905 | -3.09361 | 9963 ft | 267 kts | 206° |
| 2026-05-04 12:27 | 50.40247 | -3.10698 | 9960 ft | 267 kts | 206° |
| 2026-05-04 12:28 | 50.38600 | -3.11997 | 9952 ft | 266 kts | 202° |
| 2026-05-04 12:28 | 50.36821 | -3.12469 | 9951 ft | 261 kts | 171° |
| 2026-05-04 12:28 | 50.35141 | -3.11508 | 9978 ft | 258 kts | 153° |
| 2026-05-04 12:28 | 50.33529 | -3.10203 | 9970 ft | 259 kts | 152° |
| 2026-05-04 12:29 | 50.31934 | -3.08885 | 9964 ft | 260 kts | 152° |
| 2026-05-04 12:29 | 50.30335 | -3.07556 | 9963 ft | 260 kts | 152° |
| 2026-05-04 12:29 | 50.28749 | -3.06240 | 9960 ft | 261 kts | 152° |
| 2026-05-04 12:29 | 50.27131 | -3.04898 | 9960 ft | 260 kts | 152° |
| 2026-05-04 12:30 | 50.25535 | -3.03574 | 9966 ft | 260 kts | 152° |
| 2026-05-04 12:30 | 50.23938 | -3.02252 | 9961 ft | 260 kts | 152° |
| 2026-05-04 12:30 | 50.22342 | -3.00930 | 9958 ft | 260 kts | 152° |
| 2026-05-04 12:30 | 50.20741 | -2.99606 | 9960 ft | 260 kts | 152° |
| 2026-05-04 12:31 | 50.19159 | -2.98298 | 9959 ft | 260 kts | 152° |
| 2026-05-04 12:31 | 50.17548 | -2.96967 | 9961 ft | 260 kts | 151° |
| 2026-05-04 12:31 | 50.15962 | -2.95658 | 9970 ft | 260 kts | 151° |
| 2026-05-04 12:31 | 50.14346 | -2.94325 | 9964 ft | 261 kts | 151° |
| 2026-05-04 12:32 | 50.12746 | -2.93007 | 9960 ft | 261 kts | 151° |
| 2026-05-04 12:32 | 50.09556 | -2.90381 | 9957 ft | 260 kts | 152° |
| 2026-05-04 12:32 | 50.07958 | -2.89067 | 9963 ft | 260 kts | 152° |
| 2026-05-04 12:33 | 50.06342 | -2.87740 | 9958 ft | 260 kts | 152° |
| 2026-05-04 12:33 | 50.04754 | -2.86436 | 9957 ft | 260 kts | 152° |
| 2026-05-04 12:33 | 50.03148 | -2.85118 | 9961 ft | 260 kts | 152° |
| 2026-05-04 12:33 | 50.01546 | -2.83805 | 9962 ft | 260 kts | 152° |
| 2026-05-04 12:34 | 49.99939 | -2.82556 | 9953 ft | 260 kts | 157° |
| 2026-05-04 12:34 | 49.98207 | -2.81740 | 9963 ft | 260 kts | 165° |
| 2026-05-04 12:34 | 49.96453 | -2.81057 | 9961 ft | 260 kts | 165° |
| 2026-05-04 12:34 | 49.94691 | -2.80374 | 9962 ft | 260 kts | 165° |
| 2026-05-04 12:35 | 49.92945 | -2.79695 | 9961 ft | 260 kts | 165° |
| 2026-05-04 12:35 | 49.91205 | -2.79015 | 9959 ft | 260 kts | 165° |
| 2026-05-04 12:35 | 49.89435 | -2.78322 | 9961 ft | 260 kts | 165° |
| 2026-05-04 12:35 | 49.87693 | -2.77638 | 9960 ft | 260 kts | 165° |
| 2026-05-04 12:36 | 49.85932 | -2.76946 | 9961 ft | 261 kts | 165° |
| 2026-05-04 12:36 | 49.84168 | -2.76252 | 9960 ft | 261 kts | 165° |
| 2026-05-04 12:36 | 49.82426 | -2.75566 | 9959 ft | 261 kts | 165° |
| 2026-05-04 12:36 | 49.80653 | -2.74868 | 9961 ft | 261 kts | 165° |
| 2026-05-04 12:37 | 49.78898 | -2.74178 | 9956 ft | 261 kts | 165° |
| 2026-05-04 12:37 | 49.77141 | -2.73487 | 9956 ft | 260 kts | 165° |
| 2026-05-04 12:37 | 49.75390 | -2.72798 | 9947 ft | 260 kts | 165° |
| 2026-05-04 12:37 | 49.73651 | -2.72114 | 9951 ft | 259 kts | 165° |
| 2026-05-04 12:38 | 49.71913 | -2.71432 | 9965 ft | 259 kts | 165° |
| 2026-05-04 12:38 | 49.70168 | -2.70746 | 9969 ft | 258 kts | 165° |
| 2026-05-04 12:38 | 49.68432 | -2.70065 | 9955 ft | 258 kts | 165° |
| 2026-05-04 12:38 | 49.66698 | -2.69385 | 9972 ft | 258 kts | 165° |
| 2026-05-04 12:39 | 49.64946 | -2.68698 | 9970 ft | 259 kts | 165° |
| 2026-05-04 12:39 | 49.63216 | -2.68021 | 9948 ft | 259 kts | 165° |
| 2026-05-04 12:39 | 49.61467 | -2.67336 | 9966 ft | 258 kts | 165° |
| 2026-05-04 12:39 | 49.59713 | -2.66651 | 9969 ft | 259 kts | 165° |
| 2026-05-04 12:40 | 49.57985 | -2.65976 | 9941 ft | 259 kts | 165° |
| 2026-05-04 12:40 | 49.56242 | -2.65293 | 9820 ft | 259 kts | 165° |
| 2026-05-04 12:40 | 49.54498 | -2.64612 | 9694 ft | 258 kts | 165° |
| 2026-05-04 12:40 | 49.52761 | -2.63933 | 9569 ft | 258 kts | 165° |
| 2026-05-04 12:41 | 49.51018 | -2.63254 | 9444 ft | 257 kts | 165° |
| 2026-05-04 12:41 | 49.49277 | -2.62575 | 9317 ft | 256 kts | 165° |
| 2026-05-04 12:41 | 49.47564 | -2.61908 | 9191 ft | 256 kts | 165° |
| 2026-05-04 12:41 | 49.45840 | -2.61237 | 9063 ft | 256 kts | 165° |
| 2026-05-04 12:42 | 49.44107 | -2.60555 | 8928 ft | 255 kts | 163° |
| 2026-05-04 12:42 | 49.42456 | -2.59592 | 8782 ft | 256 kts | 155° |
| 2026-05-04 12:42 | 49.40830 | -2.58437 | 8549 ft | 259 kts | 154° |
| 2026-05-04 12:42 | 49.39201 | -2.57270 | 8304 ft | 260 kts | 154° |
| 2026-05-04 12:43 | 49.37585 | -2.56111 | 7962 ft | 255 kts | 154° |
| 2026-05-04 12:43 | 49.35989 | -2.54967 | 7573 ft | 249 kts | 154° |
| 2026-05-04 12:43 | 49.34434 | -2.53858 | 7193 ft | 244 kts | 154° |
| 2026-05-04 12:43 | 49.32927 | -2.52786 | 6819 ft | 241 kts | 154° |
| 2026-05-04 12:44 | 49.31403 | -2.51705 | 6428 ft | 238 kts | 154° |
| 2026-05-04 12:44 | 49.29904 | -2.50644 | 5950 ft | 240 kts | 154° |
| 2026-05-04 12:44 | 49.28390 | -2.49575 | 5457 ft | 241 kts | 154° |
| 2026-05-04 12:44 | 49.26883 | -2.48512 | 4967 ft | 242 kts | 154° |
| 2026-05-04 12:45 | 49.25349 | -2.47432 | 4471 ft | 243 kts | 153° |
| 2026-05-04 12:45 | 49.23812 | -2.46351 | 3974 ft | 244 kts | 153° |
| 2026-05-04 12:45 | 49.22295 | -2.45284 | 3477 ft | 241 kts | 153° |
| 2026-05-04 12:45 | 49.20795 | -2.44214 | 2975 ft | 238 kts | 151° |
| 2026-05-04 12:46 | 49.19616 | -2.42575 | 2558 ft | 226 kts | 116° |
| 2026-05-04 12:46 | 49.19381 | -2.40355 | 2472 ft | 199 kts | 86° |
| 2026-05-04 12:46 | 49.19472 | -2.38349 | 2391 ft | 182 kts | 84° |
| 2026-05-04 12:46 | 49.19573 | -2.36506 | 2359 ft | 165 kts | 84° |
| 2026-05-04 12:47 | 49.19465 | -2.34875 | 2332 ft | 148 kts | 111° |
| 2026-05-04 12:47 | 49.19257 | -2.33457 | 2262 ft | 132 kts | 85° |
| 2026-05-04 12:47 | 49.19468 | -2.32146 | 2107 ft | 125 kts | 70° |
| 2026-05-04 12:47 | 49.19740 | -2.30882 | 1862 ft | 126 kts | 74° |
| 2026-05-04 12:48 | 49.19938 | -2.29500 | 1550 ft | 143 kts | 80° |
| 2026-05-04 12:48 | 49.20086 | -2.27914 | 1215 ft | 160 kts | 82° |
| 2026-05-04 12:48 | 49.20225 | -2.26249 | 1012 ft | 155 kts | 82° |
| 2026-05-04 12:48 | 49.20362 | -2.24650 | 808 ft | 146 kts | 81° |
| 2026-05-04 12:49 | 49.20489 | -2.23172 | 627 ft | 134 kts | 83° |
| 2026-05-04 12:49 | 49.20608 | -2.21785 | 421 ft | 132 kts | 81° |
| 2026-05-04 12:49 | 49.20728 | -2.20398 | 276 ft | 130 kts | 81° |
| 2026-05-04 12:49 | 49.20821 | -2.19364 | 276 ft | 35 kts | 81° |
| 2026-05-04 12:50 | 49.20798 | -2.19042 | 274 ft | 27 kts | 112° |
| 2026-05-04 12:50 | 49.20728 | -2.18857 | 271 ft | 15 kts | 169° |
| 2026-05-04 12:50 | 49.20689 | -2.18976 | 270 ft | 14 kts | 261° |
| 2026-05-04 12:50 | 49.20681 | -2.19117 | 272 ft | 12 kts | 264° |
| 2026-05-04 12:51 | 49.20685 | -2.19239 | 274 ft | 10 kts | 284° |
| 2026-05-04 12:51 | 49.20705 | -2.19365 | 276 ft | 17 kts | 281° |
| 2026-05-04 12:51 | 49.20691 | -2.19561 | 275 ft | 17 kts | 261° |
| 2026-05-04 12:51 | 49.20623 | -2.19675 | 272 ft | 14 kts | 173° |
| 2026-05-04 12:52 | 49.20558 | -2.19637 | 272 ft | 0 kts | 160° |